sensor_id;sensor_type;location;lat;lon;timestamp;P1;durP1;ratioP1;P2;durP2;ratioP2
12816;SDS011;6473;51.552;6.716;2023-12-28T00:16:14;2.22;;;1.30;;
12816;SDS011;6473;51.552;6.716;2023-12-28T00:18:41;1.75;;;1.42;;
12816;SDS011;6473;51.552;6.716;2023-12-28T00:21:13;5.18;;;2.78;;
12816;SDS011;6473;51.552;6.716;2023-12-28T00:23:40;1.42;;;1.33;;
12816;SDS011;6473;51.552;6.716;2023-12-28T00:26:07;1.60;;;1.50;;
12816;SDS011;6473;51.552;6.716;2023-12-28T00:28:34;1.50;;;1.40;;
12816;SDS011;6473;51.552;6.716;2023-12-28T00:31:09;1.38;;;1.27;;
12816;SDS011;6473;51.552;6.716;2023-12-28T00:33:37;1.85;;;1.55;;
12816;SDS011;6473;51.552;6.716;2023-12-28T00:36:05;1.77;;;1.65;;
12816;SDS011;6473;51.552;6.716;2023-12-28T00:38:36;2.42;;;1.60;;
12816;SDS011;6473;51.552;6.716;2023-12-28T00:41:06;2.28;;;1.60;;
12816;SDS011;6473;51.552;6.716;2023-12-28T00:43:42;1.77;;;1.60;;
12816;SDS011;6473;51.552;6.716;2023-12-28T00:46:11;1.63;;;1.52;;
12816;SDS011;6473;51.552;6.716;2023-12-28T00:48:45;2.75;;;1.60;;
12816;SDS011;6473;51.552;6.716;2023-12-28T00:51:13;1.85;;;1.55;;
12816;SDS011;6473;51.552;6.716;2023-12-28T00:53:40;1.90;;;1.70;;
12816;SDS011;6473;51.552;6.716;2023-12-28T00:56:09;2.15;;;1.65;;
12816;SDS011;6473;51.552;6.716;2023-12-28T00:58:38;2.55;;;1.63;;
12816;SDS011;6473;51.552;6.716;2023-12-28T01:01:11;1.60;;;1.40;;
12816;SDS011;6473;51.552;6.716;2023-12-28T01:06:22;1.85;;;1.67;;
12816;SDS011;6473;51.552;6.716;2023-12-28T01:08:52;2.97;;;1.70;;
12816;SDS011;6473;51.552;6.716;2023-12-28T01:11:20;1.80;;;1.65;;
12816;SDS011;6473;51.552;6.716;2023-12-28T01:13:47;1.75;;;1.63;;
12816;SDS011;6473;51.552;6.716;2023-12-28T01:16:14;2.55;;;1.48;;
12816;SDS011;6473;51.552;6.716;2023-12-28T01:18:41;3.00;;;1.70;;
12816;SDS011;6473;51.552;6.716;2023-12-28T01:21:08;1.75;;;1.42;;
12816;SDS011;6473;51.552;6.716;2023-12-28T01:23:37;2.92;;;1.65;;
12816;SDS011;6473;51.552;6.716;2023-12-28T01:26:04;3.28;;;1.65;;
12816;SDS011;6473;51.552;6.716;2023-12-28T01:28:31;1.70;;;1.60;;
12816;SDS011;6473;51.552;6.716;2023-12-28T01:30:58;1.95;;;1.40;;
12816;SDS011;6473;51.552;6.716;2023-12-28T01:33:25;2.75;;;1.80;;
12816;SDS011;6473;51.552;6.716;2023-12-28T01:35:53;2.67;;;1.77;;
12816;SDS011;6473;51.552;6.716;2023-12-28T01:38:20;2.42;;;1.70;;
12816;SDS011;6473;51.552;6.716;2023-12-28T01:40:48;2.53;;;1.70;;
12816;SDS011;6473;51.552;6.716;2023-12-28T01:43:16;2.03;;;1.85;;
12816;SDS011;6473;51.552;6.716;2023-12-28T01:45:43;1.70;;;1.60;;
12816;SDS011;6473;51.552;6.716;2023-12-28T01:48:10;2.15;;;1.65;;
12816;SDS011;6473;51.552;6.716;2023-12-28T01:50:37;1.80;;;1.70;;
12816;SDS011;6473;51.552;6.716;2023-12-28T01:53:04;2.55;;;1.98;;
12816;SDS011;6473;51.552;6.716;2023-12-28T01:55:32;2.40;;;1.77;;
12816;SDS011;6473;51.552;6.716;2023-12-28T01:58:02;2.65;;;1.83;;
12816;SDS011;6473;51.552;6.716;2023-12-28T02:00:29;1.45;;;1.35;;
12816;SDS011;6473;51.552;6.716;2023-12-28T02:02:57;3.35;;;2.00;;
12816;SDS011;6473;51.552;6.716;2023-12-28T02:08:07;1.70;;;1.60;;
12816;SDS011;6473;51.552;6.716;2023-12-28T02:10:38;1.80;;;1.67;;
12816;SDS011;6473;51.552;6.716;2023-12-28T02:13:14;2.13;;;1.50;;
12816;SDS011;6473;51.552;6.716;2023-12-28T02:15:43;1.80;;;1.70;;
12816;SDS011;6473;51.552;6.716;2023-12-28T02:18:16;2.67;;;1.85;;
12816;SDS011;6473;51.552;6.716;2023-12-28T02:20:48;2.30;;;1.80;;
12816;SDS011;6473;51.552;6.716;2023-12-28T02:23:16;1.52;;;1.42;;
12816;SDS011;6473;51.552;6.716;2023-12-28T02:25:44;1.90;;;1.80;;
12816;SDS011;6473;51.552;6.716;2023-12-28T02:28:18;1.95;;;1.65;;
12816;SDS011;6473;51.552;6.716;2023-12-28T02:30:52;2.35;;;2.03;;
12816;SDS011;6473;51.552;6.716;2023-12-28T02:33:21;2.33;;;1.73;;
12816;SDS011;6473;51.552;6.716;2023-12-28T02:35:53;2.13;;;1.83;;
12816;SDS011;6473;51.552;6.716;2023-12-28T02:38:29;2.60;;;1.80;;
12816;SDS011;6473;51.552;6.716;2023-12-28T02:41:09;3.30;;;1.85;;
12816;SDS011;6473;51.552;6.716;2023-12-28T02:43:38;4.18;;;2.10;;
12816;SDS011;6473;51.552;6.716;2023-12-28T02:46:09;4.40;;;2.00;;
12816;SDS011;6473;51.552;6.716;2023-12-28T02:48:39;1.92;;;1.70;;
12816;SDS011;6473;51.552;6.716;2023-12-28T02:51:11;2.28;;;1.95;;
12816;SDS011;6473;51.552;6.716;2023-12-28T02:53:38;2.67;;;2.15;;
12816;SDS011;6473;51.552;6.716;2023-12-28T02:56:14;2.10;;;1.90;;
12816;SDS011;6473;51.552;6.716;2023-12-28T02:58:41;3.03;;;1.85;;
12816;SDS011;6473;51.552;6.716;2023-12-28T03:01:12;2.25;;;2.10;;
12816;SDS011;6473;51.552;6.716;2023-12-28T03:03:48;2.47;;;1.85;;
12816;SDS011;6473;51.552;6.716;2023-12-28T03:06:16;3.33;;;1.90;;
12816;SDS011;6473;51.552;6.716;2023-12-28T03:08:43;2.33;;;1.90;;
12816;SDS011;6473;51.552;6.716;2023-12-28T03:11:12;2.90;;;2.00;;
12816;SDS011;6473;51.552;6.716;2023-12-28T03:13:40;4.13;;;2.33;;
12816;SDS011;6473;51.552;6.716;2023-12-28T03:16:09;2.00;;;1.90;;
12816;SDS011;6473;51.552;6.716;2023-12-28T03:18:36;2.08;;;1.90;;
12816;SDS011;6473;51.552;6.716;2023-12-28T03:21:13;2.95;;;1.90;;
12816;SDS011;6473;51.552;6.716;2023-12-28T03:23:44;4.53;;;1.90;;
12816;SDS011;6473;51.552;6.716;2023-12-28T03:26:12;2.80;;;1.80;;
12816;SDS011;6473;51.552;6.716;2023-12-28T03:28:42;2.17;;;1.98;;
12816;SDS011;6473;51.552;6.716;2023-12-28T03:31:13;3.83;;;1.90;;
12816;SDS011;6473;51.552;6.716;2023-12-28T03:33:41;3.35;;;2.13;;
12816;SDS011;6473;51.552;6.716;2023-12-28T03:36:16;3.17;;;1.95;;
12816;SDS011;6473;51.552;6.716;2023-12-28T03:38:50;2.05;;;1.88;;
12816;SDS011;6473;51.552;6.716;2023-12-28T03:41:19;3.05;;;1.92;;
12816;SDS011;6473;51.552;6.716;2023-12-28T03:43:54;3.75;;;1.65;;
12816;SDS011;6473;51.552;6.716;2023-12-28T03:46:31;2.40;;;2.00;;
12816;SDS011;6473;51.552;6.716;2023-12-28T03:48:59;2.83;;;1.73;;
12816;SDS011;6473;51.552;6.716;2023-12-28T03:51:30;3.10;;;2.10;;
12816;SDS011;6473;51.552;6.716;2023-12-28T03:53:57;1.77;;;1.67;;
12816;SDS011;6473;51.552;6.716;2023-12-28T03:56:38;2.83;;;1.88;;
12816;SDS011;6473;51.552;6.716;2023-12-28T03:59:08;3.35;;;1.90;;
12816;SDS011;6473;51.552;6.716;2023-12-28T04:01:35;1.95;;;1.85;;
12816;SDS011;6473;51.552;6.716;2023-12-28T04:04:02;2.13;;;1.92;;
12816;SDS011;6473;51.552;6.716;2023-12-28T04:06:30;3.47;;;1.98;;
12816;SDS011;6473;51.552;6.716;2023-12-28T04:08:57;3.33;;;2.25;;
12816;SDS011;6473;51.552;6.716;2023-12-28T04:11:24;2.20;;;2.00;;
12816;SDS011;6473;51.552;6.716;2023-12-28T04:13:52;2.70;;;2.00;;
12816;SDS011;6473;51.552;6.716;2023-12-28T04:16:20;2.53;;;2.03;;
12816;SDS011;6473;51.552;6.716;2023-12-28T04:18:47;2.15;;;1.95;;
12816;SDS011;6473;51.552;6.716;2023-12-28T04:21:15;2.45;;;1.90;;
12816;SDS011;6473;51.552;6.716;2023-12-28T04:23:42;3.45;;;2.08;;
12816;SDS011;6473;51.552;6.716;2023-12-28T04:26:09;3.00;;;2.00;;
12816;SDS011;6473;51.552;6.716;2023-12-28T04:28:37;3.08;;;2.22;;
12816;SDS011;6473;51.552;6.716;2023-12-28T04:31:06;2.83;;;2.28;;
12816;SDS011;6473;51.552;6.716;2023-12-28T04:36:21;2.65;;;1.88;;
12816;SDS011;6473;51.552;6.716;2023-12-28T04:38:48;3.28;;;1.90;;
12816;SDS011;6473;51.552;6.716;2023-12-28T04:41:15;4.20;;;2.40;;
12816;SDS011;6473;51.552;6.716;2023-12-28T04:43:42;3.28;;;2.10;;
12816;SDS011;6473;51.552;6.716;2023-12-28T04:46:11;2.80;;;1.90;;
12816;SDS011;6473;51.552;6.716;2023-12-28T04:48:38;2.75;;;1.67;;
12816;SDS011;6473;51.552;6.716;2023-12-28T04:51:05;2.85;;;1.85;;
12816;SDS011;6473;51.552;6.716;2023-12-28T04:53:33;2.20;;;2.00;;
12816;SDS011;6473;51.552;6.716;2023-12-28T04:56:00;2.58;;;1.90;;
12816;SDS011;6473;51.552;6.716;2023-12-28T04:58:27;4.20;;;1.90;;
12816;SDS011;6473;51.552;6.716;2023-12-28T05:00:55;2.28;;;1.75;;
12816;SDS011;6473;51.552;6.716;2023-12-28T05:03:23;2.95;;;1.77;;
12816;SDS011;6473;51.552;6.716;2023-12-28T05:05:51;3.20;;;1.88;;
12816;SDS011;6473;51.552;6.716;2023-12-28T05:08:18;1.73;;;1.63;;
12816;SDS011;6473;51.552;6.716;2023-12-28T05:10:46;2.35;;;1.85;;
12816;SDS011;6473;51.552;6.716;2023-12-28T05:13:13;1.88;;;1.45;;
12816;SDS011;6473;51.552;6.716;2023-12-28T05:15:41;1.98;;;1.60;;
12816;SDS011;6473;51.552;6.716;2023-12-28T05:18:08;2.05;;;1.83;;
12816;SDS011;6473;51.552;6.716;2023-12-28T05:20:37;2.10;;;1.90;;
12816;SDS011;6473;51.552;6.716;2023-12-28T05:23:04;2.15;;;1.85;;
12816;SDS011;6473;51.552;6.716;2023-12-28T05:25:31;2.17;;;1.58;;
12816;SDS011;6473;51.552;6.716;2023-12-28T05:27:59;3.47;;;1.88;;
12816;SDS011;6473;51.552;6.716;2023-12-28T05:30:26;3.75;;;2.17;;
12816;SDS011;6473;51.552;6.716;2023-12-28T05:32:53;5.25;;;2.03;;
12816;SDS011;6473;51.552;6.716;2023-12-28T05:35:20;2.13;;;1.83;;
12816;SDS011;6473;51.552;6.716;2023-12-28T05:37:48;2.33;;;1.70;;
12816;SDS011;6473;51.552;6.716;2023-12-28T05:40:24;4.88;;;2.13;;
12816;SDS011;6473;51.552;6.716;2023-12-28T05:42:51;3.17;;;2.10;;
12816;SDS011;6473;51.552;6.716;2023-12-28T05:45:18;2.83;;;2.10;;
12816;SDS011;6473;51.552;6.716;2023-12-28T05:47:45;2.78;;;1.95;;
12816;SDS011;6473;51.552;6.716;2023-12-28T05:50:13;3.25;;;1.90;;
12816;SDS011;6473;51.552;6.716;2023-12-28T05:52:40;1.70;;;1.60;;
12816;SDS011;6473;51.552;6.716;2023-12-28T05:55:09;3.38;;;1.63;;
12816;SDS011;6473;51.552;6.716;2023-12-28T05:57:36;2.25;;;1.52;;
12816;SDS011;6473;51.552;6.716;2023-12-28T06:00:03;2.75;;;1.90;;
12816;SDS011;6473;51.552;6.716;2023-12-28T06:02:37;3.08;;;1.60;;
12816;SDS011;6473;51.552;6.716;2023-12-28T06:05:07;1.75;;;1.60;;
12816;SDS011;6473;51.552;6.716;2023-12-28T06:07:35;3.05;;;1.60;;
12816;SDS011;6473;51.552;6.716;2023-12-28T06:10:02;2.13;;;1.58;;
12816;SDS011;6473;51.552;6.716;2023-12-28T06:12:31;2.75;;;1.48;;
12816;SDS011;6473;51.552;6.716;2023-12-28T06:21:35;1.67;;;1.42;;
12816;SDS011;6473;51.552;6.716;2023-12-28T06:24:02;2.25;;;1.85;;
12816;SDS011;6473;51.552;6.716;2023-12-28T06:26:29;2.95;;;1.40;;
12816;SDS011;6473;51.552;6.716;2023-12-28T06:28:58;4.65;;;1.63;;
12816;SDS011;6473;51.552;6.716;2023-12-28T06:31:25;2.17;;;1.63;;
12816;SDS011;6473;51.552;6.716;2023-12-28T06:33:52;3.83;;;2.10;;
12816;SDS011;6473;51.552;6.716;2023-12-28T06:36:19;2.55;;;1.98;;
12816;SDS011;6473;51.552;6.716;2023-12-28T06:38:46;2.78;;;1.42;;
12816;SDS011;6473;51.552;6.716;2023-12-28T06:41:13;3.55;;;1.77;;
12816;SDS011;6473;51.552;6.716;2023-12-28T06:43:41;3.58;;;1.70;;
12816;SDS011;6473;51.552;6.716;2023-12-28T06:46:09;2.33;;;1.70;;
12816;SDS011;6473;51.552;6.716;2023-12-28T06:48:36;4.93;;;1.80;;
12816;SDS011;6473;51.552;6.716;2023-12-28T06:51:05;3.58;;;1.52;;
12816;SDS011;6473;51.552;6.716;2023-12-28T06:53:32;4.55;;;1.90;;
12816;SDS011;6473;51.552;6.716;2023-12-28T06:55:59;3.58;;;1.92;;
12816;SDS011;6473;51.552;6.716;2023-12-28T06:58:26;1.75;;;1.60;;
12816;SDS011;6473;51.552;6.716;2023-12-28T07:00:54;4.47;;;1.90;;
12816;SDS011;6473;51.552;6.716;2023-12-28T07:03:23;2.53;;;1.67;;
12816;SDS011;6473;51.552;6.716;2023-12-28T07:05:51;1.63;;;1.50;;
12816;SDS011;6473;51.552;6.716;2023-12-28T07:08:18;4.35;;;1.73;;
12816;SDS011;6473;51.552;6.716;2023-12-28T07:10:45;1.50;;;1.30;;
12816;SDS011;6473;51.552;6.716;2023-12-28T07:13:12;3.03;;;1.60;;
12816;SDS011;6473;51.552;6.716;2023-12-28T07:15:39;4.70;;;1.60;;
12816;SDS011;6473;51.552;6.716;2023-12-28T07:18:06;3.90;;;1.48;;
12816;SDS011;6473;51.552;6.716;2023-12-28T07:20:35;2.25;;;1.70;;
12816;SDS011;6473;51.552;6.716;2023-12-28T07:23:02;2.05;;;1.60;;
12816;SDS011;6473;51.552;6.716;2023-12-28T07:28:46;4.50;;;1.40;;
12816;SDS011;6473;51.552;6.716;2023-12-28T07:31:21;3.40;;;1.58;;
12816;SDS011;6473;51.552;6.716;2023-12-28T07:33:48;2.25;;;1.40;;
12816;SDS011;6473;51.552;6.716;2023-12-28T07:36:17;3.35;;;1.83;;
12816;SDS011;6473;51.552;6.716;2023-12-28T07:38:44;3.53;;;1.70;;
12816;SDS011;6473;51.552;6.716;2023-12-28T07:41:11;5.03;;;1.58;;
12816;SDS011;6473;51.552;6.716;2023-12-28T07:43:38;5.75;;;1.80;;
12816;SDS011;6473;51.552;6.716;2023-12-28T07:46:06;3.95;;;1.80;;
12816;SDS011;6473;51.552;6.716;2023-12-28T07:48:33;6.18;;;1.92;;
12816;SDS011;6473;51.552;6.716;2023-12-28T07:51:03;5.25;;;2.13;;
12816;SDS011;6473;51.552;6.716;2023-12-28T07:53:32;5.78;;;2.05;;
12816;SDS011;6473;51.552;6.716;2023-12-28T07:55:59;7.78;;;2.55;;
12816;SDS011;6473;51.552;6.716;2023-12-28T07:58:28;4.63;;;1.30;;
12816;SDS011;6473;51.552;6.716;2023-12-28T08:00:56;5.07;;;1.70;;
12816;SDS011;6473;51.552;6.716;2023-12-28T08:03:23;5.22;;;2.53;;
12816;SDS011;6473;51.552;6.716;2023-12-28T08:05:50;4.38;;;1.77;;
12816;SDS011;6473;51.552;6.716;2023-12-28T08:08:17;6.70;;;2.00;;
12816;SDS011;6473;51.552;6.716;2023-12-28T08:10:46;3.47;;;1.63;;
12816;SDS011;6473;51.552;6.716;2023-12-28T08:13:13;4.85;;;1.85;;
12816;SDS011;6473;51.552;6.716;2023-12-28T08:15:40;3.33;;;1.63;;
12816;SDS011;6473;51.552;6.716;2023-12-28T08:18:07;6.38;;;1.92;;
12816;SDS011;6473;51.552;6.716;2023-12-28T08:20:35;3.55;;;1.52;;
12816;SDS011;6473;51.552;6.716;2023-12-28T08:23:02;4.95;;;1.90;;
12816;SDS011;6473;51.552;6.716;2023-12-28T08:25:29;10.25;;;2.00;;
12816;SDS011;6473;51.552;6.716;2023-12-28T08:27:57;4.35;;;1.60;;
12816;SDS011;6473;51.552;6.716;2023-12-28T08:30:24;6.28;;;1.92;;
12816;SDS011;6473;51.552;6.716;2023-12-28T08:32:52;6.18;;;1.58;;
12816;SDS011;6473;51.552;6.716;2023-12-28T08:35:19;10.50;;;1.85;;
12816;SDS011;6473;51.552;6.716;2023-12-28T08:37:47;5.90;;;1.88;;
12816;SDS011;6473;51.552;6.716;2023-12-28T08:40:14;7.75;;;1.88;;
12816;SDS011;6473;51.552;6.716;2023-12-28T08:42:41;7.85;;;1.80;;
12816;SDS011;6473;51.552;6.716;2023-12-28T08:45:11;2.90;;;1.55;;
12816;SDS011;6473;51.552;6.716;2023-12-28T08:47:38;4.68;;;1.65;;
12816;SDS011;6473;51.552;6.716;2023-12-28T08:50:06;3.83;;;1.45;;
12816;SDS011;6473;51.552;6.716;2023-12-28T08:52:33;4.47;;;1.55;;
12816;SDS011;6473;51.552;6.716;2023-12-28T08:55:00;6.72;;;1.90;;
12816;SDS011;6473;51.552;6.716;2023-12-28T08:57:27;5.85;;;1.40;;
12816;SDS011;6473;51.552;6.716;2023-12-28T08:59:55;4.32;;;1.92;;
12816;SDS011;6473;51.552;6.716;2023-12-28T09:02:23;6.90;;;1.73;;
12816;SDS011;6473;51.552;6.716;2023-12-28T09:04:51;6.95;;;2.25;;
12816;SDS011;6473;51.552;6.716;2023-12-28T09:07:18;4.97;;;1.90;;
12816;SDS011;6473;51.552;6.716;2023-12-28T09:09:45;9.38;;;2.08;;
12816;SDS011;6473;51.552;6.716;2023-12-28T09:12:12;6.60;;;1.75;;
12816;SDS011;6473;51.552;6.716;2023-12-28T09:17:27;6.05;;;1.88;;
12816;SDS011;6473;51.552;6.716;2023-12-28T09:19:54;7.47;;;1.73;;
12816;SDS011;6473;51.552;6.716;2023-12-28T09:22:23;5.20;;;1.90;;
12816;SDS011;6473;51.552;6.716;2023-12-28T09:24:50;9.20;;;1.88;;
12816;SDS011;6473;51.552;6.716;2023-12-28T09:27:17;4.18;;;2.38;;
12816;SDS011;6473;51.552;6.716;2023-12-28T09:29:44;6.53;;;1.98;;
12816;SDS011;6473;51.552;6.716;2023-12-28T09:32:12;8.13;;;1.70;;
12816;SDS011;6473;51.552;6.716;2023-12-28T09:34:41;5.07;;;1.80;;
12816;SDS011;6473;51.552;6.716;2023-12-28T09:37:08;9.30;;;2.28;;
12816;SDS011;6473;51.552;6.716;2023-12-28T09:39:35;8.45;;;2.10;;
12816;SDS011;6473;51.552;6.716;2023-12-28T09:42:04;9.90;;;1.92;;
12816;SDS011;6473;51.552;6.716;2023-12-28T09:44:31;8.32;;;1.90;;
12816;SDS011;6473;51.552;6.716;2023-12-28T09:47:01;10.07;;;1.65;;
12816;SDS011;6473;51.552;6.716;2023-12-28T09:49:31;7.97;;;1.60;;
12816;SDS011;6473;51.552;6.716;2023-12-28T09:52:00;6.00;;;2.00;;
12816;SDS011;6473;51.552;6.716;2023-12-28T09:54:26;7.90;;;2.38;;
12816;SDS011;6473;51.552;6.716;2023-12-28T09:56:54;7.82;;;1.65;;
12816;SDS011;6473;51.552;6.716;2023-12-28T09:59:21;4.38;;;1.80;;
12816;SDS011;6473;51.552;6.716;2023-12-28T10:01:49;4.35;;;1.50;;
12816;SDS011;6473;51.552;6.716;2023-12-28T10:13:10;6.55;;;1.58;;
12816;SDS011;6473;51.552;6.716;2023-12-28T10:15:37;10.00;;;2.45;;
12816;SDS011;6473;51.552;6.716;2023-12-28T10:18:05;6.88;;;2.00;;
12816;SDS011;6473;51.552;6.716;2023-12-28T10:20:32;4.43;;;1.45;;
12816;SDS011;6473;51.552;6.716;2023-12-28T10:22:59;7.18;;;1.83;;
12816;SDS011;6473;51.552;6.716;2023-12-28T10:25:27;5.65;;;1.75;;
12816;SDS011;6473;51.552;6.716;2023-12-28T10:27:54;7.57;;;1.70;;
12816;SDS011;6473;51.552;6.716;2023-12-28T10:30:23;5.38;;;1.83;;
12816;SDS011;6473;51.552;6.716;2023-12-28T10:32:50;5.28;;;2.03;;
12816;SDS011;6473;51.552;6.716;2023-12-28T10:35:17;9.25;;;1.60;;
12816;SDS011;6473;51.552;6.716;2023-12-28T10:37:45;7.10;;;1.83;;
12816;SDS011;6473;51.552;6.716;2023-12-28T10:40:13;8.18;;;1.98;;
12816;SDS011;6473;51.552;6.716;2023-12-28T10:42:44;7.50;;;1.75;;
12816;SDS011;6473;51.552;6.716;2023-12-28T10:45:13;9.02;;;1.77;;
12816;SDS011;6473;51.552;6.716;2023-12-28T10:48:09;3.00;;;1.40;;
12816;SDS011;6473;51.552;6.716;2023-12-28T10:50:38;5.80;;;1.70;;
12816;SDS011;6473;51.552;6.716;2023-12-28T10:53:17;6.13;;;1.48;;
12816;SDS011;6473;51.552;6.716;2023-12-28T10:56:04;9.35;;;1.95;;
12816;SDS011;6473;51.552;6.716;2023-12-28T10:58:39;7.50;;;1.98;;
12816;SDS011;6473;51.552;6.716;2023-12-28T11:01:11;9.02;;;1.80;;
12816;SDS011;6473;51.552;6.716;2023-12-28T11:06:22;6.15;;;2.03;;
12816;SDS011;6473;51.552;6.716;2023-12-28T11:08:51;4.20;;;1.45;;
12816;SDS011;6473;51.552;6.716;2023-12-28T11:11:19;6.25;;;1.88;;
12816;SDS011;6473;51.552;6.716;2023-12-28T11:13:48;6.85;;;1.80;;
12816;SDS011;6473;51.552;6.716;2023-12-28T11:16:16;3.75;;;1.85;;
12816;SDS011;6473;51.552;6.716;2023-12-28T11:18:44;5.72;;;1.83;;
12816;SDS011;6473;51.552;6.716;2023-12-28T11:21:11;7.07;;;2.03;;
12816;SDS011;6473;51.552;6.716;2023-12-28T11:23:40;7.40;;;1.90;;
12816;SDS011;6473;51.552;6.716;2023-12-28T11:26:15;4.05;;;1.48;;
12816;SDS011;6473;51.552;6.716;2023-12-28T11:28:43;3.13;;;1.50;;
12816;SDS011;6473;51.552;6.716;2023-12-28T11:31:10;6.35;;;1.60;;
12816;SDS011;6473;51.552;6.716;2023-12-28T11:33:43;6.50;;;2.10;;
12816;SDS011;6473;51.552;6.716;2023-12-28T11:43:15;5.18;;;1.30;;
12816;SDS011;6473;51.552;6.716;2023-12-28T11:45:46;8.73;;;2.25;;
12816;SDS011;6473;51.552;6.716;2023-12-28T11:48:21;6.45;;;1.60;;
12816;SDS011;6473;51.552;6.716;2023-12-28T11:50:50;6.47;;;1.55;;
12816;SDS011;6473;51.552;6.716;2023-12-28T11:53:17;8.90;;;2.25;;
12816;SDS011;6473;51.552;6.716;2023-12-28T11:56:04;5.50;;;1.48;;
12816;SDS011;6473;51.552;6.716;2023-12-28T11:58:34;7.82;;;1.95;;
12816;SDS011;6473;51.552;6.716;2023-12-28T12:01:01;7.90;;;1.92;;
12816;SDS011;6473;51.552;6.716;2023-12-28T12:23:41;4.60;;;1.60;;
12816;SDS011;6473;51.552;6.716;2023-12-28T12:26:09;2.90;;;1.35;;
12816;SDS011;6473;51.552;6.716;2023-12-28T12:28:36;4.45;;;1.58;;
12816;SDS011;6473;51.552;6.716;2023-12-28T12:31:03;6.40;;;1.70;;
12816;SDS011;6473;51.552;6.716;2023-12-28T12:33:31;5.07;;;1.77;;
12816;SDS011;6473;51.552;6.716;2023-12-28T12:35:58;4.90;;;1.45;;
12816;SDS011;6473;51.552;6.716;2023-12-28T12:45:39;7.10;;;1.70;;
12816;SDS011;6473;51.552;6.716;2023-12-28T12:48:07;10.32;;;1.90;;
12816;SDS011;6473;51.552;6.716;2023-12-28T12:50:34;4.75;;;1.42;;
12816;SDS011;6473;51.552;6.716;2023-12-28T12:53:01;5.63;;;1.45;;
12816;SDS011;6473;51.552;6.716;2023-12-28T12:55:29;5.95;;;2.22;;
12816;SDS011;6473;51.552;6.716;2023-12-28T12:57:57;7.47;;;1.50;;
12816;SDS011;6473;51.552;6.716;2023-12-28T13:00:24;9.05;;;2.22;;
12816;SDS011;6473;51.552;6.716;2023-12-28T13:02:52;6.03;;;1.55;;
12816;SDS011;6473;51.552;6.716;2023-12-28T13:05:21;4.32;;;1.45;;
12816;SDS011;6473;51.552;6.716;2023-12-28T13:07:48;4.45;;;2.03;;
12816;SDS011;6473;51.552;6.716;2023-12-28T13:10:15;7.80;;;2.42;;
12816;SDS011;6473;51.552;6.716;2023-12-28T13:12:43;8.13;;;2.13;;
12816;SDS011;6473;51.552;6.716;2023-12-28T13:18:32;2.47;;;1.70;;
12816;SDS011;6473;51.552;6.716;2023-12-28T13:21:00;5.15;;;1.63;;
12816;SDS011;6473;51.552;6.716;2023-12-28T13:23:28;3.92;;;1.60;;
12816;SDS011;6473;51.552;6.716;2023-12-28T13:25:55;7.15;;;2.15;;
12816;SDS011;6473;51.552;6.716;2023-12-28T13:30:52;6.50;;;1.52;;
12816;SDS011;6473;51.552;6.716;2023-12-28T13:33:20;7.70;;;2.47;;
12816;SDS011;6473;51.552;6.716;2023-12-28T13:35:50;6.20;;;1.70;;
12816;SDS011;6473;51.552;6.716;2023-12-28T13:38:18;4.20;;;1.85;;
12816;SDS011;6473;51.552;6.716;2023-12-28T13:40:45;6.68;;;1.90;;
12816;SDS011;6473;51.552;6.716;2023-12-28T13:43:12;5.43;;;1.52;;
12816;SDS011;6473;51.552;6.716;2023-12-28T13:45:39;6.13;;;1.85;;
12816;SDS011;6473;51.552;6.716;2023-12-28T13:48:06;5.95;;;2.30;;
12816;SDS011;6473;51.552;6.716;2023-12-28T13:50:34;6.15;;;2.17;;
12816;SDS011;6473;51.552;6.716;2023-12-28T13:53:03;9.07;;;2.10;;
12816;SDS011;6473;51.552;6.716;2023-12-28T13:55:33;6.28;;;2.13;;
12816;SDS011;6473;51.552;6.716;2023-12-28T14:01:54;6.22;;;1.70;;
12816;SDS011;6473;51.552;6.716;2023-12-28T14:04:23;5.00;;;1.83;;
12816;SDS011;6473;51.552;6.716;2023-12-28T14:06:50;5.03;;;1.77;;
12816;SDS011;6473;51.552;6.716;2023-12-28T14:09:18;4.47;;;1.70;;
12816;SDS011;6473;51.552;6.716;2023-12-28T14:11:46;5.18;;;1.55;;
12816;SDS011;6473;51.552;6.716;2023-12-28T14:14:13;7.40;;;2.00;;
12816;SDS011;6473;51.552;6.716;2023-12-28T14:16:41;5.47;;;1.50;;
12816;SDS011;6473;51.552;6.716;2023-12-28T14:19:08;4.53;;;1.73;;
12816;SDS011;6473;51.552;6.716;2023-12-28T14:21:36;6.47;;;1.45;;
12816;SDS011;6473;51.552;6.716;2023-12-28T14:24:03;4.97;;;2.20;;
12816;SDS011;6473;51.552;6.716;2023-12-28T14:26:32;6.75;;;1.77;;
12816;SDS011;6473;51.552;6.716;2023-12-28T14:29:00;9.13;;;2.05;;
12816;SDS011;6473;51.552;6.716;2023-12-28T14:31:30;5.47;;;1.40;;
12816;SDS011;6473;51.552;6.716;2023-12-28T14:33:58;5.43;;;2.17;;
12816;SDS011;6473;51.552;6.716;2023-12-28T14:36:27;7.82;;;1.95;;
12816;SDS011;6473;51.552;6.716;2023-12-28T14:38:57;5.88;;;2.10;;
12816;SDS011;6473;51.552;6.716;2023-12-28T14:41:24;4.30;;;1.63;;
12816;SDS011;6473;51.552;6.716;2023-12-28T14:43:55;5.00;;;1.70;;
12816;SDS011;6473;51.552;6.716;2023-12-28T14:46:23;3.78;;;1.48;;
12816;SDS011;6473;51.552;6.716;2023-12-28T14:48:50;8.50;;;1.63;;
12816;SDS011;6473;51.552;6.716;2023-12-28T14:51:17;5.78;;;2.00;;
12816;SDS011;6473;51.552;6.716;2023-12-28T14:53:44;7.20;;;1.58;;
12816;SDS011;6473;51.552;6.716;2023-12-28T14:56:11;5.10;;;1.77;;
12816;SDS011;6473;51.552;6.716;2023-12-28T14:58:39;4.07;;;1.75;;
12816;SDS011;6473;51.552;6.716;2023-12-28T15:01:11;8.45;;;1.73;;
12816;SDS011;6473;51.552;6.716;2023-12-28T15:16:24;3.42;;;1.45;;
12816;SDS011;6473;51.552;6.716;2023-12-28T15:18:51;6.45;;;1.80;;
12816;SDS011;6473;51.552;6.716;2023-12-28T15:21:18;8.63;;;2.15;;
12816;SDS011;6473;51.552;6.716;2023-12-28T15:23:46;4.07;;;1.30;;
12816;SDS011;6473;51.552;6.716;2023-12-28T15:26:13;6.13;;;1.85;;
12816;SDS011;6473;51.552;6.716;2023-12-28T15:28:40;3.95;;;1.42;;
12816;SDS011;6473;51.552;6.716;2023-12-28T15:31:07;2.25;;;1.67;;
12816;SDS011;6473;51.552;6.716;2023-12-28T15:33:36;4.68;;;1.50;;
12816;SDS011;6473;51.552;6.716;2023-12-28T15:36:03;4.80;;;1.85;;
12816;SDS011;6473;51.552;6.716;2023-12-28T15:38:30;7.68;;;2.20;;
12816;SDS011;6473;51.552;6.716;2023-12-28T15:40:58;4.47;;;1.75;;
12816;SDS011;6473;51.552;6.716;2023-12-28T15:43:25;4.65;;;1.70;;
12816;SDS011;6473;51.552;6.716;2023-12-28T15:45:52;6.97;;;1.67;;
12816;SDS011;6473;51.552;6.716;2023-12-28T15:48:19;6.93;;;2.00;;
12816;SDS011;6473;51.552;6.716;2023-12-28T15:50:48;4.20;;;1.38;;
12816;SDS011;6473;51.552;6.716;2023-12-28T15:53:15;5.13;;;1.85;;
12816;SDS011;6473;51.552;6.716;2023-12-28T15:55:42;5.53;;;2.05;;
12816;SDS011;6473;51.552;6.716;2023-12-28T15:58:09;5.05;;;1.50;;
12816;SDS011;6473;51.552;6.716;2023-12-28T16:00:36;5.95;;;1.58;;
12816;SDS011;6473;51.552;6.716;2023-12-28T16:03:04;4.53;;;1.83;;
12816;SDS011;6473;51.552;6.716;2023-12-28T16:10:56;6.25;;;1.92;;
12816;SDS011;6473;51.552;6.716;2023-12-28T16:13:26;8.07;;;1.77;;
12816;SDS011;6473;51.552;6.716;2023-12-28T16:15:54;6.30;;;1.95;;
12816;SDS011;6473;51.552;6.716;2023-12-28T16:18:22;9.38;;;1.80;;
12816;SDS011;6473;51.552;6.716;2023-12-28T16:20:51;4.97;;;1.77;;
12816;SDS011;6473;51.552;6.716;2023-12-28T16:23:20;3.85;;;1.40;;
12816;SDS011;6473;51.552;6.716;2023-12-28T16:25:48;5.07;;;1.70;;
12816;SDS011;6473;51.552;6.716;2023-12-28T16:28:18;5.20;;;1.63;;
12816;SDS011;6473;51.552;6.716;2023-12-28T16:30:45;6.47;;;2.25;;
12816;SDS011;6473;51.552;6.716;2023-12-28T16:33:13;5.60;;;1.65;;
12816;SDS011;6473;51.552;6.716;2023-12-28T16:35:47;4.32;;;1.60;;
12816;SDS011;6473;51.552;6.716;2023-12-28T16:38:14;4.18;;;1.85;;
12816;SDS011;6473;51.552;6.716;2023-12-28T16:40:47;3.47;;;1.60;;
12816;SDS011;6473;51.552;6.716;2023-12-28T16:43:15;5.72;;;2.28;;
12816;SDS011;6473;51.552;6.716;2023-12-28T16:46:08;2.90;;;1.50;;
12816;SDS011;6473;51.552;6.716;2023-12-28T16:49:01;3.25;;;1.73;;
12816;SDS011;6473;51.552;6.716;2023-12-28T16:51:28;5.85;;;1.20;;
12816;SDS011;6473;51.552;6.716;2023-12-28T16:53:55;3.90;;;1.45;;
12816;SDS011;6473;51.552;6.716;2023-12-28T16:56:23;6.55;;;1.70;;
12816;SDS011;6473;51.552;6.716;2023-12-28T16:58:50;5.28;;;1.77;;